createdAt,value
2018-09-05T00:01:17.646Z,23.00
2018-09-05T00:03:43.863Z,23.20
2018-09-05T00:06:10.092Z,23.30
2018-09-05T00:08:36.315Z,23.50
2018-09-05T00:11:02.543Z,23.60
2018-09-05T00:13:28.845Z,23.70
2018-09-05T00:15:55.231Z,23.90
2018-09-05T00:18:21.428Z,23.90
2018-09-05T00:20:47.651Z,24.00
2018-09-05T00:23:13.892Z,24.00
2018-09-05T00:25:40.116Z,24.00
2018-09-05T00:28:06.394Z,24.10
2018-09-05T00:30:32.768Z,24.10
2018-09-05T00:32:59.032Z,24.10
2018-09-05T00:35:25.274Z,24.10
2018-09-05T00:37:51.703Z,24.10
2018-09-05T00:40:17.883Z,24.10
2018-09-05T00:42:44.107Z,24.10
2018-09-05T00:45:10.350Z,24.10
2018-09-05T00:47:36.616Z,24.10
2018-09-05T00:50:02.792Z,24.10
2018-09-05T00:52:29.031Z,24.10
2018-09-05T00:54:55.276Z,24.10
2018-09-05T00:57:21.675Z,24.10
2018-09-05T00:59:51.398Z,24.10
2018-09-05T01:02:17.619Z,24.10
2018-09-05T01:04:43.851Z,24.10
2018-09-05T01:07:10.197Z,24.10
2018-09-05T01:09:36.511Z,24.10
2018-09-05T01:12:02.731Z,24.10
2018-09-05T01:14:28.976Z,24.10
2018-09-05T01:16:55.228Z,24.10
2018-09-05T01:19:21.412Z,24.10
2018-09-05T01:21:47.645Z,24.10
2018-09-05T01:24:13.919Z,24.10
2018-09-05T01:26:40.324Z,24.10
2018-09-05T01:29:06.531Z,24.10
2018-09-05T01:31:32.756Z,24.10
2018-09-05T01:33:58.983Z,24.10
2018-09-05T01:36:25.206Z,24.10
2018-09-05T01:38:51.435Z,24.10
2018-09-05T01:41:17.695Z,24.10
2018-09-05T01:43:43.937Z,24.10
2018-09-05T01:46:10.126Z,24.10
2018-09-05T01:48:36.342Z,24.10
2018-09-05T01:51:02.579Z,24.10
2018-09-05T01:53:28.856Z,24.10
2018-09-05T01:55:55.036Z,24.10
2018-09-05T01:58:21.265Z,24.10
2018-09-05T02:00:47.552Z,24.10
2018-09-05T02:03:13.921Z,24.10
2018-09-05T02:05:40.196Z,24.10
2018-09-05T02:08:06.577Z,24.10
2018-09-05T02:10:32.807Z,24.10
2018-09-05T02:12:59.023Z,24.10
2018-09-05T02:15:25.258Z,24.10
2018-09-05T02:17:51.487Z,24.10
2018-09-05T02:20:17.708Z,24.10
2018-09-05T02:22:43.999Z,24.10
2018-09-05T02:25:10.229Z,24.10
2018-09-05T02:27:36.395Z,24.10
2018-09-05T02:30:02.695Z,24.10
2018-09-05T02:32:29.058Z,24.10
2018-09-05T02:34:55.286Z,24.10
2018-09-05T02:37:21.707Z,24.10
2018-09-05T02:39:47.943Z,24.10
2018-09-05T02:42:14.172Z,24.10
2018-09-05T02:44:40.408Z,24.10
2018-09-05T02:47:06.640Z,24.10
2018-09-05T02:49:32.905Z,24.10
2018-09-05T02:51:59.088Z,24.10
2018-09-05T02:54:25.315Z,24.10
2018-09-05T02:56:51.538Z,24.10
2018-09-05T02:59:17.814Z,24.10
2018-09-05T03:01:43.989Z,24.10
2018-09-05T03:04:10.288Z,24.10
2018-09-05T03:06:37.265Z,24.10
2018-09-05T03:09:03.552Z,24.10
2018-09-05T03:11:29.723Z,24.10
2018-09-05T03:13:55.945Z,24.10
2018-09-05T03:16:22.175Z,24.10
2018-09-05T03:18:48.411Z,24.10
2018-09-05T03:21:14.634Z,24.10
2018-09-05T03:23:40.878Z,24.10
2018-09-05T03:26:08.182Z,24.10
2018-09-05T03:28:35.163Z,24.10
2018-09-05T03:31:01.385Z,24.10
2018-09-05T03:33:27.620Z,24.10
2018-09-05T03:35:53.835Z,24.10
2018-09-05T03:38:20.061Z,24.10
2018-09-05T03:40:46.688Z,24.10
2018-09-05T03:43:12.933Z,24.10
2018-09-05T03:45:39.183Z,24.10
2018-09-05T03:48:05.379Z,24.10
2018-09-05T03:50:31.664Z,24.10
2018-09-05T03:52:57.838Z,24.10
2018-09-05T03:55:24.083Z,24.10
2018-09-05T03:57:50.315Z,24.10
2018-09-05T04:00:16.548Z,24.10
2018-09-05T04:02:42.843Z,24.10
2018-09-05T04:05:09.231Z,24.10
2018-09-05T04:07:35.608Z,24.10
2018-09-05T04:10:01.885Z,24.10
2018-09-05T04:12:28.121Z,24.10
2018-09-05T04:14:54.354Z,24.10
2018-09-05T04:17:20.725Z,24.10
2018-09-05T04:19:46.985Z,24.10
2018-09-05T04:22:13.199Z,24.10
2018-09-05T04:24:39.615Z,24.10
2018-09-05T04:27:05.898Z,24.10
2018-09-05T04:29:32.119Z,24.10
2018-09-05T04:31:58.547Z,24.10
2018-09-05T04:34:24.723Z,24.10
2018-09-05T04:36:51.005Z,24.10
2018-09-05T04:39:17.188Z,24.10
2018-09-05T04:41:43.414Z,24.10
2018-09-05T04:44:09.634Z,24.10
2018-09-05T04:46:35.888Z,24.10
2018-09-05T04:49:02.085Z,24.10
2018-09-05T04:51:33.649Z,24.10
2018-09-05T04:53:59.921Z,24.10
2018-09-05T04:56:26.104Z,24.10
2018-09-05T04:58:52.344Z,24.10
2018-09-05T05:01:18.609Z,24.10
2018-09-05T05:03:44.785Z,24.10
2018-09-05T05:08:43.013Z,24.10
2018-09-05T05:11:09.214Z,24.10
2018-09-05T05:13:35.419Z,24.10
2018-09-05T05:16:01.647Z,24.10
2018-09-05T05:18:27.883Z,24.10
2018-09-05T05:20:54.112Z,24.10
2018-09-05T05:23:20.340Z,24.10
2018-09-05T05:25:46.564Z,24.10
2018-09-05T05:28:12.793Z,24.10
2018-09-05T05:30:39.231Z,24.10
2018-09-05T05:33:05.448Z,24.10
2018-09-05T05:35:31.683Z,24.00
2018-09-05T05:37:57.977Z,24.00
2018-09-05T05:40:24.340Z,24.10
2018-09-05T05:42:50.569Z,24.10
2018-09-05T05:45:16.831Z,24.10
2018-09-05T05:47:43.225Z,24.00
2018-09-05T05:50:09.453Z,24.10
2018-09-05T05:52:35.681Z,24.10
2018-09-05T05:55:01.927Z,24.10
2018-09-05T05:57:28.348Z,24.10
2018-09-05T05:59:54.598Z,24.10
2018-09-05T06:02:20.796Z,24.10
2018-09-05T06:04:47.025Z,24.10
2018-09-05T06:07:13.260Z,24.10
2018-09-05T06:09:39.477Z,24.10
2018-09-05T06:12:05.778Z,24.10
2018-09-05T06:14:32.133Z,24.10
2018-09-05T06:16:58.362Z,24.10
2018-09-05T06:19:24.595Z,24.10
2018-09-05T06:21:50.876Z,24.10
2018-09-05T06:24:17.336Z,24.10
2018-09-05T06:26:43.692Z,24.10
2018-09-05T06:29:09.940Z,24.10
2018-09-05T06:31:36.428Z,24.10
2018-09-05T06:34:02.779Z,24.10
2018-09-05T06:36:28.999Z,24.10
2018-09-05T06:38:55.266Z,24.10
2018-09-05T06:41:21.660Z,24.10
2018-09-05T06:43:47.922Z,24.10
2018-09-05T06:46:14.119Z,24.10
2018-09-05T06:48:40.339Z,24.10
2018-09-05T06:51:06.577Z,24.10
2018-09-05T06:53:32.792Z,24.10
2018-09-05T06:55:59.052Z,24.10
2018-09-05T06:58:25.480Z,24.10
2018-09-05T07:00:51.830Z,24.10
2018-09-05T07:03:18.941Z,24.10
2018-09-05T07:05:45.151Z,24.10
2018-09-05T07:08:15.704Z,24.10
2018-09-05T07:10:41.921Z,24.10
2018-09-05T07:13:08.140Z,24.10
2018-09-05T07:15:34.378Z,24.10
2018-09-05T07:18:00.604Z,24.10
2018-09-05T07:20:26.841Z,24.10
2018-09-05T07:22:53.117Z,24.10
2018-09-05T07:25:21.772Z,24.10
2018-09-05T07:27:47.997Z,24.10
2018-09-05T07:30:14.217Z,24.20
2018-09-05T07:32:40.431Z,24.10
2018-09-05T07:35:06.649Z,24.20
2018-09-05T07:37:32.880Z,24.20
2018-09-05T07:39:59.136Z,24.20
2018-09-05T07:42:25.387Z,24.20
2018-09-05T07:44:51.597Z,24.20
2018-09-05T07:47:17.781Z,24.20
2018-09-05T07:49:44.009Z,24.20
2018-09-05T07:52:10.245Z,24.20
2018-09-05T07:54:36.467Z,24.20
2018-09-05T07:57:02.896Z,24.20
2018-09-05T07:59:29.117Z,24.20
2018-09-05T08:01:55.352Z,24.20
2018-09-05T08:04:22.057Z,24.20
2018-09-05T08:06:48.471Z,24.20
2018-09-05T08:09:14.673Z,24.20
2018-09-05T08:11:40.929Z,24.20
2018-09-05T08:14:07.315Z,24.20
2018-09-05T08:16:33.538Z,24.20
2018-09-05T08:18:59.769Z,24.20
2018-09-05T08:21:25.995Z,24.20
2018-09-05T08:23:52.219Z,24.20
2018-09-05T08:26:18.472Z,24.20
2018-09-05T08:28:44.741Z,24.20
2018-09-05T08:31:11.116Z,24.20
2018-09-05T08:33:37.343Z,24.20
2018-09-05T08:36:03.968Z,24.20
2018-09-05T08:38:30.612Z,24.20
2018-09-05T08:40:56.840Z,24.20
2018-09-05T08:43:23.065Z,24.20
2018-09-05T08:45:52.074Z,24.20
2018-09-05T08:48:18.250Z,24.20
2018-09-05T08:50:45.515Z,24.20
2018-09-05T08:53:11.903Z,24.20
2018-09-05T08:55:38.089Z,24.20
2018-09-05T08:58:04.350Z,24.20
2018-09-05T09:00:30.546Z,24.20
2018-09-05T09:02:56.860Z,24.20
2018-09-05T09:05:23.249Z,24.30
2018-09-05T09:07:49.483Z,24.30
2018-09-05T09:10:15.657Z,24.30
2018-09-05T09:12:41.884Z,24.30
2018-09-05T09:15:08.106Z,24.30
2018-09-05T09:17:34.379Z,24.30
2018-09-05T09:20:00.565Z,24.30
2018-09-05T09:22:26.788Z,24.30
2018-09-05T09:24:53.028Z,24.30
2018-09-05T09:27:19.260Z,24.30
2018-09-05T09:29:45.481Z,24.30
2018-09-05T09:32:11.707Z,24.30
2018-09-05T09:34:37.976Z,24.30
2018-09-05T09:37:04.178Z,24.30
2018-09-05T09:39:30.420Z,24.30
2018-09-05T09:41:56.612Z,24.30
2018-09-05T09:44:22.875Z,24.30
2018-09-05T09:46:49.076Z,24.30
2018-09-05T09:49:15.318Z,24.30
2018-09-05T09:51:41.534Z,24.30
2018-09-05T09:54:07.760Z,24.30
2018-09-05T09:56:34.041Z,24.30
2018-09-05T09:59:00.412Z,24.30
2018-09-05T10:01:26.697Z,24.30
2018-09-05T10:03:52.916Z,24.30
2018-09-05T10:06:19.318Z,24.30
2018-09-05T10:08:45.737Z,24.30
2018-09-05T10:11:11.959Z,24.30
2018-09-05T10:13:38.190Z,24.30
2018-09-05T10:16:09.792Z,24.40
2018-09-05T10:18:35.981Z,24.40
2018-09-05T10:21:03.899Z,24.30
2018-09-05T10:23:30.353Z,24.40
2018-09-05T10:25:57.722Z,24.30
2018-09-05T10:28:23.940Z,24.40
2018-09-05T10:30:50.174Z,24.40
2018-09-05T10:33:16.453Z,24.40
2018-09-05T10:35:43.016Z,24.40
2018-09-05T10:38:10.084Z,24.40
2018-09-05T10:40:36.311Z,24.40
2018-09-05T10:43:02.545Z,24.40
2018-09-05T10:45:28.766Z,24.40
2018-09-05T10:47:54.992Z,24.40
2018-09-05T10:50:21.227Z,24.40
2018-09-05T10:52:47.456Z,24.40
2018-09-05T10:55:13.742Z,24.40
2018-09-05T10:57:40.114Z,24.40
2018-09-05T11:00:06.341Z,24.40
2018-09-05T11:02:32.589Z,24.40
2018-09-05T11:04:58.860Z,24.40
2018-09-05T11:07:25.232Z,24.40
2018-09-05T11:09:51.449Z,24.40
2018-09-05T11:12:17.678Z,24.40
2018-09-05T11:14:43.908Z,24.40
2018-09-05T11:17:10.136Z,24.40
2018-09-05T11:19:36.366Z,24.40
2018-09-05T11:22:02.643Z,24.40
2018-09-05T11:24:28.817Z,24.40
2018-09-05T11:26:55.083Z,24.40
2018-09-05T11:29:21.279Z,24.40
2018-09-05T11:31:47.508Z,24.40
2018-09-05T11:34:13.776Z,24.50
2018-09-05T11:36:39.947Z,24.50
2018-09-05T11:39:06.199Z,24.50
2018-09-05T11:41:32.441Z,24.50
2018-09-05T11:43:58.896Z,24.50
2018-09-05T11:46:25.080Z,24.50
2018-09-05T11:48:51.296Z,24.50
2018-09-05T11:51:17.524Z,24.50
2018-09-05T11:53:43.743Z,24.50
2018-09-05T11:56:10.353Z,24.50
2018-09-05T11:58:37.447Z,24.50
2018-09-05T12:01:03.760Z,24.50
2018-09-05T12:03:30.128Z,24.50
2018-09-05T12:05:56.332Z,24.50
2018-09-05T12:08:22.554Z,24.50
2018-09-05T12:10:48.803Z,24.50
2018-09-05T12:13:15.005Z,24.50
2018-09-05T12:15:41.320Z,24.50
2018-09-05T12:18:07.664Z,24.50
2018-09-05T12:20:33.925Z,24.50
2018-09-05T12:23:00.128Z,24.50
2018-09-05T12:25:26.348Z,24.60
2018-09-05T12:27:52.647Z,24.50
2018-09-05T12:30:19.007Z,24.60
2018-09-05T12:32:45.235Z,24.60
2018-09-05T12:35:11.471Z,24.60
2018-09-05T12:37:37.736Z,24.60
2018-09-05T12:40:03.917Z,24.60
2018-09-05T12:42:33.823Z,24.60
2018-09-05T12:45:00.072Z,24.60
2018-09-05T12:47:26.292Z,24.60
2018-09-05T12:49:52.523Z,24.60
2018-09-05T12:52:18.751Z,24.60
2018-09-05T12:54:44.975Z,24.60
2018-09-05T12:57:11.224Z,24.60
2018-09-05T12:59:37.439Z,24.60
2018-09-05T13:02:03.663Z,24.60
2018-09-05T13:04:29.888Z,24.60
2018-09-05T13:06:56.146Z,24.60
2018-09-05T13:09:22.340Z,24.60
2018-09-05T13:11:48.574Z,24.60
2018-09-05T13:14:14.806Z,24.60
2018-09-05T13:16:41.091Z,24.60
2018-09-05T13:19:07.455Z,24.60
2018-09-05T13:21:33.734Z,24.60
2018-09-05T13:23:59.911Z,24.60
2018-09-05T13:26:26.170Z,24.60
2018-09-05T13:28:52.568Z,24.60
2018-09-05T13:31:18.938Z,24.60
2018-09-05T13:33:45.398Z,24.60
2018-09-05T13:36:11.664Z,24.60
2018-09-05T13:38:37.888Z,24.60
2018-09-05T13:41:04.135Z,24.60
2018-09-05T13:43:30.408Z,24.60
2018-09-05T13:45:56.778Z,24.60
2018-09-05T13:48:23.008Z,24.70
2018-09-05T13:50:49.232Z,24.70
2018-09-05T13:53:15.459Z,24.70
2018-09-05T13:55:41.681Z,24.70
2018-09-05T13:58:07.916Z,24.70
2018-09-05T14:00:34.188Z,24.70
2018-09-05T14:03:00.573Z,24.70
2018-09-05T14:05:26.873Z,24.70
2018-09-05T14:07:53.235Z,24.70
2018-09-05T14:10:19.511Z,24.70
2018-09-05T14:12:45.687Z,24.70
2018-09-05T14:15:11.922Z,24.70
2018-09-05T14:17:38.145Z,24.70
2018-09-05T14:20:04.373Z,24.70
2018-09-05T14:22:30.598Z,24.70
2018-09-05T14:24:56.824Z,24.70
2018-09-05T14:27:23.074Z,24.70
2018-09-05T14:29:49.487Z,24.70
2018-09-05T14:32:15.710Z,24.70
2018-09-05T14:34:41.939Z,24.70
2018-09-05T14:37:08.167Z,24.70
2018-09-05T14:39:34.403Z,24.70
2018-09-05T14:42:00.677Z,24.70
2018-09-05T14:44:26.847Z,24.70
2018-09-05T14:46:53.076Z,24.70
2018-09-05T14:49:21.967Z,24.70
2018-09-05T14:51:48.197Z,24.70
2018-09-05T14:54:14.489Z,24.70
2018-09-05T14:56:40.853Z,24.70
2018-09-05T14:59:07.090Z,24.70
2018-09-05T15:01:33.311Z,24.70
2018-09-05T15:03:59.528Z,24.70
2018-09-05T15:06:25.804Z,24.70
2018-09-05T15:08:53.008Z,24.70
2018-09-05T15:11:19.240Z,24.70
2018-09-05T15:13:45.526Z,24.70
2018-09-05T15:16:11.696Z,24.70
2018-09-05T15:18:37.922Z,24.70
2018-09-05T15:21:04.185Z,24.70
2018-09-05T15:23:30.385Z,24.70
2018-09-05T15:25:56.656Z,24.70
2018-09-05T15:28:22.839Z,24.70
2018-09-05T15:30:49.131Z,24.70
2018-09-05T15:33:15.304Z,24.70
2018-09-05T15:35:41.544Z,24.70
2018-09-05T15:38:07.757Z,24.70
2018-09-05T15:40:33.981Z,24.80
2018-09-05T15:43:00.200Z,24.80
2018-09-05T15:45:26.424Z,24.80
2018-09-05T15:47:53.015Z,24.80
2018-09-05T15:50:22.010Z,24.80
2018-09-05T15:52:48.245Z,24.80
2018-09-05T15:55:14.613Z,24.80
2018-09-05T15:57:40.844Z,24.80
2018-09-05T16:00:07.136Z,24.80
2018-09-05T16:02:33.501Z,24.80
2018-09-05T16:04:59.732Z,24.80
2018-09-05T16:07:25.957Z,24.80
2018-09-05T16:09:52.191Z,24.80
2018-09-05T16:12:18.461Z,24.80
2018-09-05T16:14:44.633Z,24.80
2018-09-05T16:17:10.888Z,24.80
2018-09-05T16:19:37.096Z,24.80
2018-09-05T16:22:04.144Z,24.80
2018-09-05T16:24:30.359Z,24.80
2018-09-05T16:26:56.601Z,24.80
2018-09-05T16:29:22.831Z,24.80
2018-09-05T16:31:49.052Z,24.80
2018-09-05T16:34:15.321Z,24.80
2018-09-05T16:36:41.525Z,24.80
2018-09-05T16:39:07.731Z,24.80
2018-09-05T16:41:33.968Z,24.80
2018-09-05T16:44:00.204Z,24.90
2018-09-05T16:46:26.408Z,24.80
2018-09-05T16:48:52.652Z,24.90
2018-09-05T16:51:18.864Z,24.80
2018-09-05T16:53:45.093Z,24.80
2018-09-05T16:56:11.328Z,24.80
2018-09-05T16:58:37.545Z,24.80
2018-09-05T17:01:03.834Z,24.80
2018-09-05T17:03:30.363Z,24.80
2018-09-05T17:05:56.641Z,24.80
2018-09-05T17:08:23.100Z,24.80
2018-09-05T17:10:49.341Z,24.80
2018-09-05T17:13:15.532Z,24.80
2018-09-05T17:15:41.780Z,24.80
2018-09-05T17:18:08.036Z,24.80
2018-09-05T17:20:34.212Z,24.80
2018-09-05T17:23:04.128Z,24.80
2018-09-05T17:25:31.067Z,24.80
2018-09-05T17:27:57.404Z,24.80
2018-09-05T17:30:28.127Z,24.80
2018-09-05T17:32:54.361Z,24.80
2018-09-05T17:35:20.670Z,24.80
2018-09-05T17:37:47.071Z,24.80
2018-09-05T17:40:13.484Z,24.80
2018-09-05T17:42:39.683Z,24.80
2018-09-05T17:45:06.004Z,24.80
2018-09-05T17:47:32.336Z,24.80
2018-09-05T17:49:58.558Z,24.80
2018-09-05T17:52:24.787Z,24.80
2018-09-05T17:54:51.017Z,24.80
2018-09-05T17:57:17.302Z,24.80
2018-09-05T17:59:43.673Z,24.80
2018-09-05T18:02:09.905Z,24.80
2018-09-05T18:04:36.149Z,24.80
2018-09-05T18:07:02.373Z,24.80
2018-09-05T18:09:34.130Z,24.80
2018-09-05T18:12:00.349Z,24.80
2018-09-05T18:14:26.607Z,24.80
2018-09-05T18:16:53.006Z,24.80
2018-09-05T18:19:19.247Z,24.80
2018-09-05T18:21:45.460Z,24.80
2018-09-05T18:24:11.697Z,24.80
2018-09-05T18:26:37.918Z,24.80
2018-09-05T18:29:04.144Z,24.80
2018-09-05T18:31:30.373Z,24.80
2018-09-05T18:33:56.766Z,24.80
2018-09-05T18:36:23.063Z,24.80
2018-09-05T18:38:49.456Z,24.80
2018-09-05T18:41:15.687Z,24.80
2018-09-05T18:43:41.910Z,24.80
2018-09-05T18:46:08.144Z,24.80
2018-09-05T18:48:34.368Z,24.80
2018-09-05T18:51:00.591Z,24.80
2018-09-05T18:53:26.820Z,24.80
2018-09-05T18:55:53.048Z,24.80
2018-09-05T18:58:19.285Z,24.80
2018-09-05T19:00:45.592Z,24.80
2018-09-05T19:03:11.933Z,24.80
2018-09-05T19:05:38.173Z,24.80
2018-09-05T19:08:04.456Z,24.80
2018-09-05T19:10:30.672Z,24.80
2018-09-05T19:12:58.290Z,24.80
2018-09-05T19:15:24.582Z,24.80
2018-09-05T19:17:50.953Z,24.80
2018-09-05T19:20:17.180Z,24.80
2018-09-05T19:22:43.429Z,24.80
2018-09-05T19:25:16.685Z,24.80
2018-09-05T19:27:43.073Z,24.80
2018-09-05T19:30:09.264Z,24.80
2018-09-05T19:32:35.479Z,24.80
2018-09-05T19:35:01.695Z,24.80
2018-09-05T19:37:27.924Z,24.70
2018-09-05T19:39:54.152Z,24.80
2018-09-05T19:42:20.404Z,24.80
2018-09-05T19:44:47.623Z,24.80
2018-09-05T19:47:13.864Z,24.70
2018-09-05T19:49:40.085Z,24.80
2018-09-05T19:52:07.333Z,24.80
2018-09-05T19:54:33.621Z,24.80
2018-09-05T19:56:59.897Z,24.80
2018-09-05T19:59:26.231Z,24.80
2018-09-05T20:01:52.464Z,24.80
2018-09-05T20:04:18.683Z,24.80
2018-09-05T20:06:44.904Z,24.70
2018-09-05T20:09:11.139Z,24.80
2018-09-05T20:11:37.466Z,24.80
2018-09-05T20:14:03.794Z,24.70
2018-09-05T20:16:30.223Z,24.80
2018-09-05T20:18:56.464Z,24.70
2018-09-05T20:21:22.687Z,24.70
2018-09-05T20:23:48.916Z,24.70
2018-09-05T20:26:15.151Z,24.70
2018-09-05T20:28:41.392Z,24.70
2018-09-05T20:31:07.603Z,24.70
2018-09-05T20:33:33.882Z,24.70
2018-09-05T20:36:00.268Z,24.70
2018-09-05T20:38:26.477Z,24.70
2018-09-05T20:40:52.710Z,24.70
2018-09-05T20:43:18.934Z,24.70
2018-09-05T20:45:45.168Z,24.70
2018-09-05T20:48:11.429Z,24.70
2018-09-05T20:50:37.665Z,24.70
2018-09-05T20:53:03.843Z,24.70
2018-09-05T20:55:30.090Z,24.70
2018-09-05T20:57:56.342Z,24.70
2018-09-05T21:00:22.523Z,24.70
2018-09-05T21:02:48.760Z,24.70
2018-09-05T21:05:14.981Z,24.70
2018-09-05T21:07:41.216Z,24.70
2018-09-05T21:10:07.458Z,24.70
2018-09-05T21:12:33.680Z,24.70
2018-09-05T21:14:59.892Z,24.70
2018-09-05T21:17:26.120Z,24.70
2018-09-05T21:19:52.359Z,24.70
2018-09-05T21:22:18.636Z,24.70
2018-09-05T21:24:44.799Z,24.70
2018-09-05T21:27:11.092Z,24.70
2018-09-05T21:29:37.459Z,24.70
2018-09-05T21:32:03.686Z,24.70
2018-09-05T21:34:29.920Z,24.70
2018-09-05T21:36:58.403Z,24.70
2018-09-05T21:39:24.627Z,24.70
2018-09-05T21:41:50.855Z,24.70
2018-09-05T21:44:17.114Z,24.70
2018-09-05T21:46:43.317Z,24.70
2018-09-05T21:49:09.538Z,24.70
2018-09-05T21:51:35.965Z,24.70
2018-09-05T21:54:02.244Z,24.70
2018-09-05T21:56:28.627Z,24.70
2018-09-05T21:58:54.914Z,24.70
2018-09-05T22:01:21.085Z,24.70
2018-09-05T22:03:47.321Z,24.70
2018-09-05T22:06:13.553Z,24.70
2018-09-05T22:08:39.817Z,24.70
2018-09-05T22:11:05.988Z,24.70
2018-09-05T22:13:32.311Z,24.70
2018-09-05T22:15:58.643Z,24.70
2018-09-05T22:18:24.884Z,24.70
2018-09-05T22:20:51.115Z,24.70
2018-09-05T22:23:17.336Z,24.70
2018-09-05T22:25:43.612Z,24.70
2018-09-05T22:28:09.788Z,24.70
2018-09-05T22:30:36.337Z,24.70
2018-09-05T22:33:02.643Z,24.70
2018-09-05T22:35:28.927Z,24.70
2018-09-05T22:37:55.299Z,24.70
2018-09-05T22:40:21.584Z,24.70
2018-09-05T22:42:47.802Z,24.70
2018-09-05T22:45:13.992Z,24.70
2018-09-05T22:47:40.304Z,24.70
2018-09-05T22:50:06.649Z,24.70
2018-09-05T22:52:32.909Z,24.70
2018-09-05T22:54:59.112Z,24.70
2018-09-05T22:57:25.405Z,24.70
2018-09-05T22:59:51.774Z,24.70
2018-09-05T23:02:18.048Z,24.70
2018-09-05T23:04:44.439Z,24.70
2018-09-05T23:07:10.659Z,24.70
2018-09-05T23:09:36.888Z,24.70
2018-09-05T23:12:03.172Z,24.70
2018-09-05T23:14:29.571Z,24.70
2018-09-05T23:16:56.020Z,24.70
2018-09-05T23:19:22.420Z,24.70
2018-09-05T23:21:52.381Z,24.60
2018-09-05T23:24:18.561Z,24.60
2018-09-05T23:26:44.790Z,24.60
2018-09-05T23:29:11.019Z,24.60
2018-09-05T23:31:37.442Z,24.60
2018-09-05T23:34:03.663Z,24.60
2018-09-05T23:36:29.891Z,24.60
2018-09-05T23:38:56.119Z,24.60
2018-09-05T23:41:22.356Z,24.60
2018-09-05T23:43:48.619Z,24.60
2018-09-05T23:46:15.039Z,24.60
2018-09-05T23:48:41.240Z,24.60
2018-09-05T23:51:07.471Z,24.60
2018-09-05T23:53:33.692Z,24.60
2018-09-05T23:56:04.465Z,24.60
2018-09-05T23:58:30.649Z,24.60
